Latest Weather Observations for Tasman Island

IDT60801

Issued at 11:05 am EST Saturday 23 August 2014 (issued every 30 minutes, with the page automatically refreshed every 10 minutes)

About weather observations | Map of weather stations | Latest weather observations for TAS | Other Formats
Station Details ID: 094155 Name: TASMAN ISLAND Lat: -43.24 Lon: 148.00 Height: 240.0 m
Data from the previous 72 hours. | See also: Recent months at Tasman Island
Date/Time
EST
Temp
°C
App
Temp
°C
Dew
Point
Rel
Hum
%
Delta-T
°C
Wind Press
QNH
hPa
Press
MSL
hPa
Rain
since 9 am
mm
Dir
 
Spd
km/h
Gust
km/h
Spd
kts
Gust
kts
23/11:00am 12.1 7.8 10.8 92 0.7 NNE 24 33 13 18 1030.9 1031.3 0.0
23/10:30am 11.8 7.3 10.2 90 0.8 NNE 24 32 13 17 1031.1 - 0.0
23/10:00am 11.5 7.3 9.9 90 0.8 NNE 22 30 12 16 1031.3 1031.8 0.0
23/09:30am 11.5 6.5 9.4 87 1.1 N 26 32 14 17 1031.3 - 0.0
23/09:00am 11.3 5.7 8.7 84 1.3 N 28 35 15 19 1031.4 1031.9 0.0
23/08:30am 10.7 4.9 7.8 82 1.4 N 28 35 15 19 1031.3 - 0.0
23/08:00am 10.4 4.5 7.6 83 1.3 N 28 35 15 19 1031.3 1031.8 0.0
23/07:30am 9.7 5.1 8.3 91 0.7 N 22 28 12 15 1031.3 - 0.0
23/07:00am 9.3 4.0 8.5 95 0.4 N 26 35 14 19 1030.9 1031.3 0.0
23/06:30am 9.2 2.7 9.1 99 0.0 N 33 43 18 23 1030.6 - 0.0
23/06:00am 9.4 3.9 9.1 98 0.1 N 28 35 15 19 1030.3 1030.7 0.0
23/05:30am 9.2 3.6 8.7 97 0.2 N 28 33 15 18 1030.3 - 0.0
23/05:00am 9.6 5.5 8.5 93 0.5 N 20 26 11 14 1030.3 1030.7 0.0
23/04:30am 9.9 5.5 7.5 85 1.2 N 20 26 11 14 1030.2 - 0.0
23/04:00am 9.4 5.3 8.0 91 0.7 N 19 22 10 12 1030.2 1030.6 0.0
23/03:30am 9.6 5.7 8.8 95 0.4 N 19 24 10 13 1030.3 - 0.0
23/03:00am 9.2 4.8 9.1 99 0.0 N 22 26 12 14 1030.4 1030.8 0.0
23/02:30am 9.3 5.0 9.2 99 0.0 N 22 26 12 14 1030.6 - 0.0
23/02:00am 9.6 4.6 9.5 99 0.0 N 26 32 14 17 1030.9 1031.3 0.0
23/01:30am 9.7 4.7 9.6 99 0.1 N 26 32 14 17 1030.9 - 0.0
23/01:00am 9.8 6.0 9.8 100 0.0 N 20 30 11 16 1030.9 1031.3 0.0
23/12:30am 10.0 4.7 10.0 100 0.0 N 28 35 15 19 1030.9 - 0.0
23/12:00am 10.4 4.9 10.4 100 0.0 N 30 39 16 21 1031.0 1031.5 0.0
 
Date/Time
EST
Temp
°C
App
Temp
°C
Dew
Point
Rel
Hum
%
Delta-T
°C
Wind Press
QNH
hPa
Press
MSL
hPa
Rain
since 9 am
mm
Dir
 
Spd
km/h
Gust
km/h
Spd
kts
Gust
kts
22/11:30pm 10.4 4.5 10.4 100 0.0 N 32 41 17 22 1031.2 - 0.0
22/11:00pm 10.2 4.0 10.1 99 0.1 N 33 44 18 24 1031.4 1031.9 0.0
22/10:30pm 10.4 4.4 10.2 99 0.1 N 32 44 17 24 1031.4 - 0.0
22/10:00pm 10.4 3.9 10.2 99 0.1 N 35 46 19 25 1031.6 1032.1 0.0
22/09:30pm 10.4 4.2 10.2 99 0.1 N 33 46 18 25 1031.7 - 0.0
22/09:00pm 10.4 3.1 10.1 98 0.2 N 39 50 21 27 1031.7 1032.2 0.0
22/08:30pm 10.3 3.3 9.8 97 0.3 N 37 48 20 26 1031.6 - 0.0
22/08:00pm 10.4 2.9 9.5 94 0.5 N 39 50 21 27 1031.4 1031.9 0.0
22/07:30pm 10.5 2.9 8.9 90 0.8 N 39 52 21 28 1031.3 - 0.0
22/07:00pm 10.8 3.8 8.6 86 1.1 NNE 35 48 19 26 1031.6 1032.1 0.0
22/06:30pm 10.6 3.5 8.2 85 1.2 NNE 35 48 19 26 1031.4 - 0.0
22/06:00pm 10.5 3.0 8.1 85 1.2 NNE 37 48 20 26 1031.4 1031.9 0.0
22/05:30pm 10.5 3.4 8.1 85 1.2 NNE 35 46 19 25 1031.3 - 0.0
22/05:00pm 10.7 2.9 8.3 85 1.2 NNE 39 48 21 26 1031.1 1031.6 0.0
22/04:30pm 11.1 3.8 8.7 85 1.2 NNE 37 48 20 26 1031.0 - 0.0
22/04:00pm 11.0 4.1 8.9 87 1.0 NNE 35 46 19 25 1031.0 1031.5 0.0
22/03:30pm 11.1 4.2 8.7 85 1.2 NNE 35 44 19 24 1031.1 - 0.0
22/03:00pm 11.7 4.4 8.7 82 1.5 NNE 37 56 20 30 1030.9 1031.3 0.0
22/02:30pm 11.8 3.6 8.1 78 1.8 NNE 41 56 22 30 1031.1 - 0.0
22/02:00pm 11.6 3.5 6.9 73 2.3 N 39 52 21 28 1031.2 1031.7 0.0
22/01:30pm 11.5 4.0 8.0 79 1.7 N 37 46 20 25 1031.4 - 0.0
22/01:00pm 12.1 5.6 9.1 82 1.5 NNE 33 46 18 25 1031.6 1032.1 0.0
22/12:30pm 12.1 6.5 8.8 80 1.7 NNE 28 37 15 20 1032.1 - 0.0
22/12:00pm 11.6 5.4 7.7 77 1.9 N 30 43 16 23 1032.4 1032.8 0.0
22/11:30am 12.3 5.2 6.6 68 2.8 N 33 43 18 23 1032.9 - 0.0
22/11:00am 11.9 4.7 6.0 67 2.8 N 33 46 18 25 1033.2 1033.6 0.0
22/10:30am 11.9 5.0 6.4 69 2.6 N 32 43 17 23 1033.4 - 0.0
22/10:00am 11.4 4.3 6.3 71 2.4 N 33 44 18 24 1033.4 1033.8 0.0
22/09:30am 10.9 4.7 6.3 73 2.2 N 28 43 15 23 1033.4 - 0.0
22/09:00am 10.5 4.3 6.1 74 2.1 N 28 48 15 26 1033.4 1033.8 0.2
22/08:57am 10.4 4.2 6.0 74 2.1 N 28 48 15 26 1033.4 - 0.2
22/08:30am 10.1 3.0 6.6 79 1.7 N 33 44 18 24 1033.4 - 0.2
22/08:00am 9.5 3.3 6.2 80 1.5 N 28 50 15 27 1033.4 1033.8 0.2
22/07:30am 9.3 3.2 6.6 83 1.3 N 28 48 15 26 1033.4 - 0.2
22/07:00am 8.9 2.9 7.0 88 0.9 N 28 43 15 23 1033.1 1033.5 0.2
22/06:30am 8.8 1.5 7.1 89 0.8 N 35 43 19 23 1032.8 - 0.2
22/06:00am 8.9 2.7 7.8 93 0.5 N 30 44 16 24 1032.8 1033.2 0.2
22/05:30am 9.0 2.8 7.8 92 0.6 N 30 44 16 24 1032.7 - 0.2
22/05:17am 9.0 3.2 7.9 93 0.5 N 28 46 15 25 1032.7 - 0.2
22/05:00am 9.1 2.0 8.2 94 0.4 N 35 44 19 24 1032.5 1032.9 0.2
22/04:30am 9.1 1.2 7.9 92 0.6 N 39 54 21 29 1032.2 - 0.2
22/04:00am 9.2 1.0 8.0 92 0.6 N 41 52 22 28 1032.2 1032.6 0.2
22/03:30am 9.2 0.3 7.6 90 0.8 N 44 59 24 32 1031.7 - 0.2
22/03:00am 9.2 0.5 7.6 90 0.8 N 43 54 23 29 1031.7 1032.2 0.2
22/02:30am 9.2 0.8 7.5 89 0.8 N 41 50 22 27 1031.8 - 0.2
22/02:00am 9.3 0.9 7.4 88 0.9 N 41 59 22 32 1032.2 1032.6 0.2
22/01:30am 9.2 1.7 7.8 91 0.7 N 37 44 20 24 1032.6 - 0.2
22/01:00am 9.2 2.5 8.0 92 0.6 N 33 41 18 22 1032.7 1033.1 0.2
22/12:30am 9.1 2.4 8.2 94 0.4 NNE 33 41 18 22 1032.7 - 0.2
22/12:00am 9.2 2.5 8.3 94 0.4 N 33 41 18 22 1032.7 1033.1 0.2
 
Date/Time
EST
Temp
°C
App
Temp
°C
Dew
Point
Rel
Hum
%
Delta-T
°C
Wind Press
QNH
hPa
Press
MSL
hPa
Rain
since 9 am
mm
Dir
 
Spd
km/h
Gust
km/h
Spd
kts
Gust
kts
21/11:30pm 9.5 3.1 8.6 94 0.4 N 32 37 17 20 1032.7 - 0.2
21/11:00pm 9.7 2.7 8.6 93 0.5 NNE 35 43 19 23 1032.7 1033.1 0.2
21/10:30pm 9.5 2.7 7.9 90 0.8 NNE 33 44 18 24 1032.8 - 0.2
21/10:00pm 9.6 2.7 8.8 95 0.4 NNE 35 43 19 23 1032.9 1033.3 0.2
21/09:30pm 9.5 3.1 8.7 95 0.4 NNE 32 43 17 23 1032.9 - 0.2
21/09:00pm 9.5 3.0 8.9 96 0.3 NNE 33 41 18 22 1032.8 1033.2 0.2
21/08:30pm 9.5 3.1 8.6 94 0.4 NNE 32 44 17 24 1032.7 - 0.2
21/08:00pm 9.5 3.1 8.4 93 0.5 NNE 32 41 17 22 1032.7 1033.1 0.2
21/07:30pm 9.5 3.0 8.3 92 0.6 NNE 32 37 17 20 1032.6 - 0.2
21/07:00pm 9.6 3.4 8.0 90 0.8 NNE 30 37 16 20 1032.5 1032.9 0.2
21/06:30pm 9.5 3.2 7.6 88 0.9 NNE 30 37 16 20 1032.4 - 0.2
21/06:00pm 9.6 3.6 7.2 85 1.1 NNE 28 39 15 21 1032.1 1032.5 0.2
21/05:30pm 9.5 3.7 6.4 81 1.5 NNE 26 37 14 20 1031.8 - 0.2
21/05:00pm 9.6 4.2 6.5 81 1.4 NNE 24 32 13 17 1031.8 1032.3 0.2
21/04:30pm 10.0 4.1 6.0 76 1.9 NNE 26 33 14 18 1031.6 - 0.2
21/04:00pm 10.3 4.8 5.7 73 2.1 NNE 24 32 13 17 1031.4 1031.9 0.2
21/03:30pm 10.5 5.7 5.7 72 2.2 NNE 20 28 11 15 1031.3 - 0.2
21/03:00pm 10.6 5.8 5.4 70 2.4 NNE 20 26 11 14 1031.3 1031.8 0.2
21/02:30pm 11.0 6.4 5.7 70 2.5 NNE 19 22 10 12 1031.5 - 0.2
21/02:00pm 11.1 6.5 5.4 68 2.6 NNE 19 22 10 12 1031.5 1032.0 0.2
21/01:30pm 11.2 6.9 5.1 66 2.8 NNE 17 22 9 12 1031.5 - 0.2
21/01:00pm 11.4 7.2 5.5 67 2.7 NNE 17 24 9 13 1031.7 1032.2 0.2
21/12:30pm 11.6 7.4 5.7 67 2.8 NNE 17 22 9 12 1032.1 - 0.2
21/12:00pm 11.1 6.4 5.0 66 2.8 NNE 19 22 10 12 1032.3 1032.7 0.2
21/11:30am 11.0 7.1 5.5 69 2.6 NNE 15 24 8 13 1032.6 - 0.0
21/11:00am 11.1 8.0 5.4 68 2.6 NNE 11 19 6 10 1032.8 1033.2 0.0
21/10:30am 10.5 6.5 5.1 69 2.5 NNE 15 20 8 11 1032.9 - 0.0
21/10:00am 10.3 6.6 4.7 68 2.5 NNE 13 20 7 11 1032.9 1033.3 0.0
21/09:30am 10.0 7.5 5.0 71 2.3 NNE 7 13 4 7 1033.0 - 0.0
21/09:00am 9.6 6.2 6.0 78 1.7 NNE 13 19 7 10 1032.9 1033.3 0.0
21/08:30am 8.7 6.0 5.6 81 1.4 N 9 17 5 9 1032.7 - 0.0
21/08:00am 8.4 6.1 5.5 82 1.3 N 7 13 4 7 1032.5 1032.9 0.0
21/07:30am 8.2 6.1 5.7 84 1.1 N 6 9 3 5 1032.2 - 0.0
21/07:00am 8.1 6.4 5.9 86 1.0 NNE 4 6 2 3 1031.7 1032.2 0.0
21/06:30am 8.0 6.0 6.3 89 0.8 N 6 7 3 4 1031.3 - 0.0
21/06:00am 7.9 6.7 6.5 91 0.6 NW 2 4 1 2 1031.0 1031.5 0.0
21/05:30am 7.9 6.0 6.5 91 0.7 W 6 6 3 3 1031.0 - 0.0
21/05:00am 8.0 6.1 6.8 92 0.6 W 6 7 3 4 1030.8 1031.2 0.0
21/04:30am 7.9 6.0 6.7 92 0.6 W 6 6 3 3 1030.6 - 0.0
21/04:00am 8.0 6.5 6.9 93 0.5 WNW 4 6 2 3 1030.3 1030.7 0.0
21/03:30am 8.0 6.0 6.9 93 0.5 W 7 9 4 5 1030.1 - 0.0
21/03:00am 7.8 6.3 6.9 94 0.4 NW 4 4 2 2 1030.0 1030.4 0.0
21/02:30am 7.9 6.8 7.0 94 0.4 WNW 2 4 1 2 1030.0 - 0.0
21/02:00am 8.0 6.6 7.1 94 0.4 NW 4 7 2 4 1030.1 1030.5 0.0
21/01:30am 7.6 6.1 6.7 94 0.4 W 4 6 2 3 1030.1 - 0.0
21/01:00am 8.2 7.1 7.1 93 0.5 NNW 2 4 1 2 1030.1 1030.5 0.0
21/12:30am 7.7 6.2 6.6 93 0.5 WSW 4 7 2 4 1030.1 - 0.0
21/12:00am 7.7 5.8 6.6 93 0.5 SSW 6 11 3 6 1030.1 1030.5 0.0
 
Date/Time
EST
Temp
°C
App
Temp
°C
Dew
Point
Rel
Hum
%
Delta-T
°C
Wind Press
QNH
hPa
Press
MSL
hPa
Rain
since 9 am
mm
Dir
 
Spd
km/h
Gust
km/h
Spd
kts
Gust
kts
20/11:30pm 7.6 5.4 6.4 92 0.6 SW 7 11 4 6 1029.9 - 0.0
20/11:00pm 8.3 6.2 6.6 89 0.8 SSW 7 13 4 7 1029.9 1030.3 0.0
20/10:30pm 8.5 5.6 6.6 88 0.9 SSW 11 19 6 10 1029.8 - 0.0
20/10:00pm 8.6 6.1 6.7 88 0.9 SSW 9 17 5 9 1029.7 1030.1 0.0
20/09:30pm 8.5 6.1 6.8 89 0.8 SSW 9 17 5 9 1029.5 - 0.0
20/09:00pm 8.5 5.7 7.0 90 0.7 SSW 11 19 6 10 1029.4 1029.8 0.0
20/08:30pm 8.0 5.1 6.5 90 0.7 SSW 11 20 6 11 1029.1 - 0.0
20/08:00pm 8.2 5.3 6.7 90 0.7 SSW 11 17 6 9 1028.9 1029.3 0.0
20/07:30pm 8.1 5.2 6.4 89 0.8 SSW 11 17 6 9 1028.7 - 0.0
20/07:00pm 8.3 4.6 6.1 86 1.0 SSW 15 20 8 11 1028.4 1028.8 0.0
20/06:30pm 8.1 4.7 5.7 85 1.1 SSW 13 20 7 11 1028.1 - 0.0
20/06:00pm 8.3 4.1 5.8 84 1.1 SSW 17 28 9 15 1027.8 1028.2 0.0
20/05:30pm 8.3 4.5 5.8 84 1.1 SSW 15 24 8 13 1027.3 - 0.0
20/05:00pm 8.6 3.9 5.0 78 1.6 SSW 19 33 10 18 1027.1 1027.5 0.0
20/04:30pm 9.1 4.2 5.1 76 1.8 SW 20 33 11 18 1026.8 - 0.0
20/04:00pm 9.4 3.4 5.4 76 1.8 SW 26 37 14 20 1026.5 1026.9 0.0
20/03:30pm 9.1 3.3 4.5 73 2.1 SW 24 43 13 23 1026.3 - 0.0
20/03:00pm 9.1 3.0 4.7 74 2.0 SW 26 43 14 23 1026.1 1026.5 0.0
20/02:30pm 9.2 4.1 5.8 79 1.6 SW 22 41 12 22 1025.9 - 0.0
20/02:00pm 9.1 6.9 7.7 91 0.7 SW 9 28 5 15 1025.8 1026.2 0.0
20/01:30pm 9.2 7.6 8.1 93 0.5 W 6 20 3 11 1025.7 - 0.0
20/01:00pm 8.3 5.9 6.9 91 0.7 WSW 9 26 5 14 1025.6 1026.0 0.0
20/12:30pm 7.7 4.4 6.3 91 0.6 W 13 26 7 14 1025.7 - 0.0
20/12:00pm 8.1 5.9 6.4 89 0.8 SW 7 19 4 10 1025.8 1026.2 0.0
20/11:30am 9.3 7.4 6.6 83 1.3 SW 6 20 3 11 1025.9 - 0.0

Other Formats:

Comma delimited format used in spreadsheet applications
http://www.bom.gov.au/fwo/IDT60801/IDT60801.95986.axf

JavaScript Object Notation format (JSON) in row-major order
http://www.bom.gov.au/fwo/IDT60801/IDT60801.95986.json